Time;durP1;ratioP1;P1;durP2;ratioP2;P2;SDS_P1;SDS_P2;PMS_P1;PMS_P2;Temp;Humidity;BMP_temperature;BMP_pressure;BME280_temperature;BME280_humidity;BME280_pressure;Samples;Min_cycle;Max_cycle;Signal;HPM_P1;HPM_P2
2022/05/10 00:01:28;;;;;;;3.30;1.10;;;;;;;2.75;63.01;99767.02;104815;1271;74307;-27
2022/05/10 00:03:57;;;;;;;2.10;1.10;;;;;;;2.64;62.86;99765.88;104735;1274;75208;-27
2022/05/10 00:06:26;;;;;;;4.50;1.70;;;;;;;2.53;63.03;99765.08;104940;1271;73261;-27
2022/05/10 00:08:55;;;;;;;5.70;1.40;;;;;;;2.44;63.06;99762.30;104752;1271;60995;-27
2022/05/10 00:11:25;;;;;;;1.50;1.00;;;;;;;2.36;63.34;99760.20;105041;1271;61028;-27
2022/05/10 00:13:53;;;;;;;4.90;1.40;;;;;;;2.29;63.65;99756.33;105169;1271;75715;-25
2022/05/10 00:16:22;;;;;;;4.90;1.60;;;;;;;2.23;63.80;99758.94;105171;1271;76083;-26
2022/05/10 00:18:50;;;;;;;3.00;1.50;;;;;;;2.19;63.42;99754.14;104899;1271;74365;-26
2022/05/10 00:21:21;;;;;;;4.60;1.40;;;;;;;2.16;63.15;99749.95;105086;1271;61392;-26
2022/05/10 00:23:50;;;;;;;3.50;1.20;;;;;;;2.17;63.00;99753.20;104801;1272;62319;-26
2022/05/10 00:26:19;;;;;;;2.30;1.30;;;;;;;2.15;63.62;99754.27;105043;1274;74454;-26
2022/05/10 00:28:47;;;;;;;2.20;1.30;;;;;;;2.10;64.51;99758.04;105006;1271;76075;-26
2022/05/10 00:31:16;;;;;;;2.20;1.10;;;;;;;2.05;64.72;99756.14;104805;1274;73317;-26
2022/05/10 00:33:45;;;;;;;5.40;1.30;;;;;;;2.00;65.85;99760.09;104836;1274;62435;-27
2022/05/10 00:36:15;;;;;;;5.50;1.50;;;;;;;1.92;65.84;99761.77;105038;1274;61027;-26
2022/05/10 00:38:44;;;;;;;4.00;1.20;;;;;;;1.83;66.26;99759.45;104888;1274;76010;-26
2022/05/10 00:41:56;;;;;;;2.00;0.80;;;;;;;1.78;66.15;99755.02;105128;1271;76411;-27
2022/05/10 00:44:30;;;;;;;5.60;1.40;;;;;;;2.59;65.14;99759.86;104787;1272;73576;-27
2022/05/10 00:47:25;;;;;;;2.70;1.10;;;;;;;3.23;63.02;99759.69;104890;1271;62027;-27
2022/05/10 00:50:01;;;;;;;2.00;1.10;;;;;;;3.37;62.08;99759.48;105138;1272;62887;-26
2022/05/10 00:52:52;;;;;;;5.70;1.60;;;;;;;3.27;61.37;99762.79;105136;1274;75853;-27
2022/05/10 00:55:47;;;;;;;2.00;1.30;;;;;;;3.09;61.42;99762.63;105116;1274;75834;-27
2022/05/10 00:58:24;;;;;;;3.40;1.60;;;;;;;2.91;61.62;99763.35;105135;1271;74419;-27
2022/05/10 01:00:55;;;;;;;3.00;1.30;;;;;;;2.74;62.22;99765.19;104910;1271;61654;-26
2022/05/10 01:03:32;;;;;;;3.00;1.30;;;;;;;2.59;63.06;99765.89;104684;1271;62306;-26
2022/05/10 01:06:05;;;;;;;1.60;1.10;;;;;;;2.45;64.94;99765.37;104844;1273;75506;-26
2022/05/10 01:09:08;;;;;;;2.70;1.40;;;;;;;2.30;65.35;99763.49;104792;1271;76139;-27
2022/05/10 01:11:44;;;;;;;2.80;1.20;;;;;;;2.11;65.29;99763.31;104633;1274;74384;-27
2022/05/10 01:18:59;;;;;;;2.50;1.40;;;;;;;1.78;65.56;99764.08;104854;1271;61170;-27
2022/05/10 01:21:46;;;;;;;2.90;1.10;;;;;;;1.69;66.56;99763.73;104902;1271;75331;-28
2022/05/10 01:24:33;;;;;;;3.90;1.30;;;;;;;1.58;66.78;99758.94;105053;1274;75759;-27
2022/05/10 01:27:17;;;;;;;2.40;1.20;;;;;;;1.47;68.32;99757.41;105112;1271;74495;-27
2022/05/10 01:29:54;;;;;;;2.40;1.20;;;;;;;1.39;68.79;99756.11;104918;1272;61145;-27
2022/05/10 01:33:31;;;;;;;3.00;1.10;;;;;;;1.33;69.21;99756.64;105096;1272;61147;-27
2022/05/10 01:35:34;;;;;;;7.20;2.10;;;;;;;2.17;67.84;99753.84;104894;1274;75365;-27
2022/05/10 01:38:07;;;;;;;7.90;1.70;;;;;;;2.79;65.19;99753.34;104667;1274;75385;-27
2022/05/10 01:40:37;;;;;;;3.60;1.40;;;;;;;2.89;64.08;99751.26;104720;1275;74589;-27
2022/05/10 01:43:27;;;;;;;2.50;1.30;;;;;;;2.74;63.69;99749.89;104704;1274;61196;-27
2022/05/10 01:46:00;;;;;;;2.30;1.30;;;;;;;2.54;63.72;99749.81;104750;1274;61062;-27
2022/05/10 01:48:28;;;;;;;6.50;1.80;;;;;;;2.35;64.20;99747.73;104658;1274;74528;-27
2022/05/10 01:51:01;;;;;;;6.00;1.90;;;;;;;2.19;65.37;99745.41;104832;1273;76039;-27
2022/05/10 01:53:35;;;;;;;4.20;1.30;;;;;;;1.99;66.81;99747.63;104686;1276;74189;-27
2022/05/10 01:56:04;;;;;;;3.90;1.50;;;;;;;1.82;67.97;99753.34;104866;1274;61662;-27
2022/05/10 01:58:34;;;;;;;4.60;1.70;;;;;;;1.66;67.94;99747.02;105162;1271;60985;-27
2022/05/10 02:01:18;;;;;;;3.20;1.50;;;;;;;1.50;68.62;99742.23;104768;1272;76090;-28
2022/05/10 02:04:03;;;;;;;3.40;1.70;;;;;;;1.38;69.65;99738.54;105055;1271;76022;-27
2022/05/10 02:06:55;;;;;;;4.20;1.70;;;;;;;1.22;69.43;99736.13;104883;1273;74566;-27
2022/05/10 02:09:36;;;;;;;3.90;1.60;;;;;;;1.10;69.25;99732.56;104808;1274;61127;-28
2022/05/10 02:12:12;;;;;;;1.30;0.80;;;;;;;1.04;70.21;99734.63;104923;1271;61157;-27
2022/05/10 02:14:47;;;;;;;2.70;1.30;;;;;;;1.68;70.37;99738.41;104922;1272;75606;-27
2022/05/10 02:17:23;;;;;;;3.40;1.60;;;;;;;2.39;68.08;99738.00;104885;1273;76040;-27
2022/05/10 02:19:58;;;;;;;4.60;1.60;;;;;;;2.53;66.81;99740.21;104661;1274;73584;-27
2022/05/10 02:23:05;;;;;;;1.60;1.10;;;;;;;2.42;66.43;99739.44;104744;1272;61833;-27
2022/05/10 02:25:38;;;;;;;3.30;1.30;;;;;;;2.15;67.70;99743.32;104494;1280;61362;-27
2022/05/10 02:28:34;;;;;;;1.80;1.00;;;;;;;1.85;68.32;99743.65;104249;1280;74670;-27
2022/05/10 02:31:06;;;;;;;1.60;1.20;;;;;;;1.60;68.60;99747.41;104314;1281;76282;-26
2022/05/10 02:33:36;;;;;;;4.00;1.30;;;;;;;1.38;71.06;99749.33;104141;1277;74778;-27
2022/05/10 02:36:04;;;;;;;4.40;1.10;;;;;;;1.21;71.22;99747.79;104408;1280;61208;-26
2022/05/10 02:38:37;;;;;;;1.70;1.10;;;;;;;1.00;71.79;99750.83;104494;1277;61316;-27
2022/05/10 02:41:14;;;;;;;2.10;1.20;;;;;;;0.83;72.26;99747.45;104286;1278;73750;-26
2022/05/10 02:43:49;;;;;;;2.20;1.00;;;;;;;0.75;73.00;99749.71;104433;1278;74891;-27
2022/05/10 02:46:18;;;;;;;3.30;1.30;;;;;;;1.40;73.19;99747.35;104453;1278;74816;-27
2022/05/10 02:48:47;;;;;;;2.70;1.20;;;;;;;2.23;70.88;99739.93;104667;1278;61335;-27
2022/05/10 02:51:16;;;;;;;2.80;1.40;;;;;;;2.48;69.21;99741.42;104449;1277;61113;-27
2022/05/10 02:53:45;;;;;;;5.90;1.10;;;;;;;2.41;68.92;99739.29;104125;1280;75560;-26
2022/05/10 02:56:19;;;;;;;2.20;1.20;;;;;;;2.27;69.15;99740.30;104589;1271;75948;-26
2022/05/10 02:59:09;;;;;;;1.70;1.10;;;;;;;2.21;69.70;99742.23;105078;1272;74478;-26
2022/05/10 03:01:51;;;;;;;2.60;1.20;;;;;;;2.29;69.40;99744.19;105105;1270;61156;-26
2022/05/10 03:04:22;;;;;;;2.90;1.30;;;;;;;2.47;68.27;99740.45;105085;1272;62309;-26
2022/05/10 03:06:51;;;;;;;2.40;1.20;;;;;;;2.66;67.69;99744.04;105193;1271;75802;-25
2022/05/10 03:09:19;;;;;;;4.20;1.50;;;;;;;2.83;67.25;99743.40;105147;1272;75759;-26
2022/05/10 03:11:47;;;;;;;2.30;1.70;;;;;;;3.05;66.47;99748.19;105172;1271;72425;-26
2022/05/10 03:14:16;;;;;;;2.80;1.50;;;;;;;3.30;65.88;99750.48;105113;1271;61023;-28
2022/05/10 03:16:44;;;;;;;3.90;1.50;;;;;;;3.56;65.29;99750.83;105058;1272;62024;-27
2022/05/10 03:19:14;;;;;;;2.30;0.90;;;;;;;4.23;64.48;99753.15;104906;1272;75467;-28
2022/05/10 03:21:42;;;;;;;2.70;1.20;;;;;;;5.16;62.61;99749.60;104839;1272;75747;-27
2022/05/10 03:24:11;;;;;;;3.90;1.40;;;;;;;5.61;61.15;99753.30;105007;1271;73552;-26
2022/05/10 03:26:40;;;;;;;4.90;1.70;;;;;;;5.85;60.45;99747.83;104916;1271;61148;-26
2022/05/10 03:29:08;;;;;;;7.60;2.00;;;;;;;6.08;59.74;99747.36;105184;1271;61775;-27
2022/05/10 03:31:37;;;;;;;3.40;1.50;;;;;;;6.22;58.86;99752.15;105119;1271;75381;-28
2022/05/10 03:36:53;;;;;;;4.60;1.20;;;;;;;6.42;58.42;99748.73;105053;1273;74458;-26
2022/05/10 03:39:22;;;;;;;5.90;1.60;;;;;;;6.56;58.44;99751.98;105071;1271;61040;-26
2022/05/10 03:41:50;;;;;;;3.20;1.60;;;;;;;6.68;58.39;99750.78;104960;1271;61127;-27
2022/05/10 03:44:19;;;;;;;2.00;1.30;;;;;;;6.87;58.59;99755.83;105152;1271;75440;-27
2022/05/10 03:46:50;;;;;;;3.60;1.40;;;;;;;7.01;58.25;99750.72;105168;1271;76321;-27
2022/05/10 03:49:19;;;;;;;2.90;1.50;;;;;;;7.27;57.97;99753.81;105132;1271;74624;-27
2022/05/10 03:51:48;;;;;;;1.90;1.40;;;;;;;7.58;57.57;99751.67;104958;1271;61037;-27
2022/05/10 03:54:17;;;;;;;3.80;1.70;;;;;;;7.77;57.63;99752.14;104877;1271;61041;-27
2022/05/10 03:56:46;;;;;;;3.40;1.90;;;;;;;7.85;57.53;99748.60;104863;1272;74158;-27
2022/05/10 03:59:15;;;;;;;5.80;1.70;;;;;;;8.06;57.31;99749.59;105130;1271;76295;-27
2022/05/10 04:01:44;;;;;;;4.90;1.80;;;;;;;8.41;56.08;99750.61;105136;1271;74262;-27
2022/05/10 04:04:14;;;;;;;4.50;1.90;;;;;;;8.78;55.47;99754.91;104945;1271;61063;-27
2022/05/10 04:06:43;;;;;;;5.50;1.80;;;;;;;9.11;53.53;99757.23;104775;1274;61048;-27
2022/05/10 04:09:15;;;;;;;4.00;2.30;;;;;;;9.38;52.20;99754.08;104859;1271;75525;-27
2022/05/10 04:11:45;;;;;;;6.00;2.80;;;;;;;9.58;52.12;99758.89;104783;1271;76322;-27
2022/05/10 04:14:14;;;;;;;13.60;3.10;;;;;;;9.62;52.28;99759.79;104785;1271;74644;-24
2022/05/10 04:16:43;;;;;;;7.30;2.90;;;;;;;9.71;52.02;99758.19;104946;1271;62112;-29
2022/05/10 04:19:12;;;;;;;4.50;2.60;;;;;;;9.80;51.71;99760.70;105011;1271;62023;-27
2022/05/10 04:21:40;;;;;;;5.80;2.30;;;;;;;9.83;51.59;99759.83;105106;1271;75913;-27
2022/05/10 04:24:09;;;;;;;5.50;2.50;;;;;;;9.95;51.26;99756.92;105094;1272;75806;-27
2022/05/10 04:26:37;;;;;;;4.70;2.30;;;;;;;10.17;51.01;99759.50;105112;1271;74402;-27
2022/05/10 04:29:07;;;;;;;5.40;2.70;;;;;;;10.34;50.33;99758.83;104902;1271;62444;-27
2022/05/10 04:31:36;;;;;;;6.00;2.70;;;;;;;10.59;49.76;99759.77;105140;1271;61783;-25
2022/05/10 04:34:05;;;;;;;6.60;3.00;;;;;;;10.77;49.73;99762.10;105139;1272;75365;-27
2022/05/10 04:36:33;;;;;;;9.90;3.20;;;;;;;10.88;49.40;99765.52;105160;1271;76072;-26
2022/05/10 04:39:03;;;;;;;4.50;3.20;;;;;;;10.95;48.57;99761.36;105097;1271;75852;-26
2022/05/10 04:41:33;;;;;;;13.80;4.60;;;;;;;11.17;46.21;99760.33;105072;1271;61667;-27
2022/05/10 04:44:09;;;;;;;9.20;4.20;;;;;;;11.45;46.48;99759.85;104781;1271;62207;-27
2022/05/10 04:46:39;;;;;;;10.80;4.20;;;;;;;11.74;45.61;99764.85;104877;1272;75851;-25
2022/05/10 04:49:09;;;;;;;7.90;3.60;;;;;;;11.86;45.05;99768.52;104841;1271;75933;-25
2022/05/10 04:51:38;;;;;;;7.50;3.80;;;;;;;12.03;44.66;99766.90;105027;1271;74869;-25
2022/05/10 04:54:06;;;;;;;6.00;3.50;;;;;;;12.25;44.77;99766.45;105125;1271;62150;-26
2022/05/10 04:56:35;;;;;;;8.50;4.40;;;;;;;12.33;42.31;99765.34;105018;1271;61440;-26
2022/05/10 04:59:03;;;;;;;6.40;3.70;;;;;;;12.36;42.37;99769.23;104879;1271;74692;-25
2022/05/10 05:01:32;;;;;;;12.20;3.90;;;;;;;12.58;42.98;99769.69;104892;1271;76053;-25
2022/05/10 05:04:04;;;;;;;9.30;3.80;;;;;;;12.73;42.83;99769.03;104669;1274;74412;-25
2022/05/10 05:06:35;;;;;;;9.30;4.40;;;;;;;12.86;42.16;99771.85;105131;1271;61306;-26
2022/05/10 05:09:04;;;;;;;12.70;4.80;;;;;;;13.03;41.96;99772.21;105142;1271;62099;-25
2022/05/10 05:11:34;;;;;;;7.20;3.70;;;;;;;13.14;41.97;99774.48;105113;1271;74287;-26
2022/05/10 05:14:03;;;;;;;6.50;4.10;;;;;;;13.25;40.92;99771.88;105071;1271;76033;-25
2022/05/10 05:16:31;;;;;;;8.60;4.50;;;;;;;13.49;41.38;99771.48;105150;1271;74392;-25
2022/05/10 05:19:00;;;;;;;14.90;4.70;;;;;;;13.81;40.64;99775.68;104998;1271;62438;-25
2022/05/10 05:21:28;;;;;;;8.20;3.80;;;;;;;14.15;40.24;99771.61;104929;1271;62339;-25
2022/05/10 05:23:57;;;;;;;8.80;4.90;;;;;;;14.35;38.06;99769.45;104909;1271;75578;-25
2022/05/10 05:26:25;;;;;;;8.80;4.30;;;;;;;14.47;37.10;99769.47;105130;1271;76206;-25
2022/05/10 05:28:54;;;;;;;10.80;5.10;;;;;;;14.55;37.04;99768.09;104988;1271;72856;-25
2022/05/10 05:31:23;;;;;;;11.90;4.30;;;;;;;14.63;36.58;99771.22;104901;1271;61126;-25
2022/05/10 05:33:54;;;;;;;10.30;4.40;;;;;;;14.85;36.27;99772.16;104737;1271;61128;-27
2022/05/10 05:36:23;;;;;;;6.90;4.20;;;;;;;15.01;36.18;99772.52;104878;1271;73514;-26
2022/05/10 05:38:51;;;;;;;8.10;4.60;;;;;;;15.01;35.70;99771.61;104909;1271;76071;-26
2022/05/10 05:41:20;;;;;;;5.60;4.20;;;;;;;15.16;36.00;99770.36;104841;1271;74287;-27
2022/05/10 05:43:48;;;;;;;3.80;2.90;;;;;;;15.25;35.01;99772.36;104753;1271;61109;-27
2022/05/10 05:46:17;;;;;;;3.70;2.50;;;;;;;15.29;34.73;99773.75;104873;1271;61320;-25
2022/05/10 05:48:46;;;;;;;3.70;2.20;;;;;;;15.22;33.78;99771.07;104582;1271;488428;-27
2022/05/10 05:51:18;;;;;;;8.80;2.20;;;;;;;15.27;34.23;99768.30;104916;1271;76457;-27
2022/05/10 05:53:47;;;;;;;4.00;2.20;;;;;;;15.19;33.51;99768.33;104812;1271;74379;-26
2022/05/10 05:56:16;;;;;;;9.90;3.10;;;;;;;15.40;33.26;99765.58;104894;1271;61766;-27
2022/05/10 05:58:45;;;;;;;4.10;1.80;;;;;;;15.58;32.85;99763.42;105039;1271;62036;-27
2022/05/10 06:01:14;;;;;;;4.80;2.00;;;;;;;15.73;33.28;99760.64;105082;1271;75513;-26
2022/05/10 06:03:43;;;;;;;5.00;1.90;;;;;;;15.60;32.52;99762.38;105082;1271;76057;-26
2022/05/10 06:06:13;;;;;;;4.90;2.00;;;;;;;15.64;31.66;99759.38;105135;1271;74552;-27
2022/05/10 06:08:44;;;;;;;2.90;1.60;;;;;;;15.72;31.22;99763.85;105130;1271;62465;-26
2022/05/10 06:11:13;;;;;;;5.20;1.90;;;;;;;15.85;31.39;99764.67;105130;1271;62027;-27
2022/05/10 06:13:42;;;;;;;2.80;1.70;;;;;;;15.97;30.92;99764.59;104919;1271;75516;-26
2022/05/10 06:16:10;;;;;;;3.40;1.70;;;;;;;16.13;28.97;99759.83;105142;1271;75753;-27
2022/05/10 06:18:39;;;;;;;3.30;1.90;;;;;;;16.31;29.55;99758.33;104965;1271;74360;-26
2022/05/10 06:21:08;;;;;;;2.00;1.30;;;;;;;16.52;30.13;99757.95;104987;1271;62615;-25
2022/05/10 06:23:36;;;;;;;2.30;1.50;;;;;;;16.57;30.07;99758.71;104994;1271;61051;-26
2022/05/10 06:26:05;;;;;;;2.60;1.50;;;;;;;16.53;29.65;99756.63;104918;1271;75558;-25
2022/05/10 06:28:34;;;;;;;3.10;1.20;;;;;;;16.65;29.51;99758.57;104900;1271;76001;-25
2022/05/10 06:31:05;;;;;;;4.00;1.30;;;;;;;16.91;28.12;99755.92;104905;1271;74215;-25
2022/05/10 06:33:34;;;;;;;2.00;1.10;;;;;;;16.87;25.47;99757.20;104904;1271;62019;-26
2022/05/10 06:36:03;;;;;;;3.10;1.50;;;;;;;16.88;25.74;99754.88;104867;1271;61095;-26
2022/05/10 06:38:34;;;;;;;2.70;1.70;;;;;;;17.04;25.55;99756.11;104739;1271;75364;-26
2022/05/10 06:41:06;;;;;;;3.80;1.20;;;;;;;17.26;25.83;99756.27;104946;1271;75944;-26
2022/05/10 06:43:35;;;;;;;2.20;1.00;;;;;;;17.55;24.95;99757.50;104925;1271;74185;-25
2022/05/10 06:46:13;;;;;;;2.80;1.50;;;;;;;17.49;24.62;99755.51;104758;1272;61306;-26
2022/05/10 06:48:45;;;;;;;3.50;1.40;;;;;;;17.74;25.73;99751.21;104692;1271;61096;-26
2022/05/10 06:51:15;;;;;;;5.00;1.40;;;;;;;17.97;25.66;99747.67;104811;1271;75571;-25
2022/05/10 06:53:44;;;;;;;2.80;1.00;;;;;;;18.01;25.51;99750.27;104813;1271;76033;-26
2022/05/10 06:56:13;;;;;;;3.20;1.20;;;;;;;17.72;25.24;99745.30;104903;1270;74334;-26
2022/05/10 06:58:42;;;;;;;6.70;1.50;;;;;;;17.00;26.06;99744.19;104949;1271;61138;-26
2022/05/10 07:01:11;;;;;;;2.70;1.20;;;;;;;16.08;25.86;99735.09;104913;1271;62041;-26
2022/05/10 07:03:49;;;;;;;5.80;1.30;;;;;;;15.93;25.32;99732.97;105115;1271;75204;-26
2022/05/10 07:06:20;;;;;;;2.20;1.00;;;;;;;16.62;25.99;99735.08;104829;1271;76161;-24
2022/05/10 07:08:48;;;;;;;2.80;1.20;;;;;;;17.16;25.69;99732.01;104755;1271;74364;-25
2022/05/10 07:11:17;;;;;;;2.10;1.10;;;;;;;17.66;25.19;99732.69;104869;1271;61059;-26
2022/05/10 07:13:45;;;;;;;2.40;1.20;;;;;;;17.56;24.57;99733.13;105018;1271;61089;-27
2022/05/10 07:16:14;;;;;;;1.60;1.20;;;;;;;17.43;24.59;99730.81;104986;1271;75621;-27
2022/05/10 07:18:42;;;;;;;7.80;1.40;;;;;;;16.71;23.23;99727.67;104950;1271;74836;-25
2022/05/10 07:21:11;;;;;;;2.20;1.10;;;;;;;17.01;23.37;99730.85;104899;1271;74333;-25
2022/05/10 07:23:39;;;;;;;2.30;0.90;;;;;;;17.04;23.88;99727.23;104894;1271;62087;-27
2022/05/10 07:26:08;;;;;;;3.00;1.30;;;;;;;17.10;23.79;99723.48;104906;1271;61118;-25
2022/05/10 07:28:37;;;;;;;1.30;1.10;;;;;;;17.26;24.54;99722.65;104900;1271;75727;-24
2022/05/10 07:31:12;;;;;;;4.10;1.20;;;;;;;17.41;24.15;99717.80;104928;1271;76081;-25
2022/05/10 07:33:40;;;;;;;1.60;0.90;;;;;;;17.63;24.38;99719.13;104950;1270;74446;-26
2022/05/10 07:36:24;;;;;;;2.90;1.50;;;;;;;17.80;25.38;99715.10;105098;1271;61077;-26
2022/05/10 07:38:52;;;;;;;2.10;1.00;;;;;;;17.72;24.33;99714.21;105126;1271;61051;-26
2022/05/10 07:41:24;;;;;;;3.30;1.60;;;;;;;17.38;24.58;99714.55;105185;1274;75926;-26
2022/05/10 07:43:52;;;;;;;3.70;0.90;;;;;;;17.59;24.30;99711.46;104895;1271;75923;-26
2022/05/10 07:46:21;;;;;;;2.70;0.90;;;;;;;17.70;24.87;99709.46;104953;1271;74805;-25
2022/05/10 07:48:50;;;;;;;2.40;1.30;;;;;;;17.79;24.36;99707.02;104994;1271;61042;-24
2022/05/10 07:51:19;;;;;;;3.90;1.40;;;;;;;17.74;25.73;99701.95;104848;1271;62056;-25
2022/05/10 07:53:47;;;;;;;7.30;1.20;;;;;;;17.43;24.88;99702.84;104811;1274;73725;-27
2022/05/10 07:56:24;;;;;;;4.00;1.20;;;;;;;16.73;24.86;99699.30;104711;1274;75826;-25
2022/05/10 07:58:54;;;;;;;1.80;1.20;;;;;;;17.31;24.00;99702.68;104915;1270;73515;-26
2022/05/10 08:01:23;;;;;;;3.60;1.20;;;;;;;17.03;24.22;99700.42;104975;1271;61121;-25
2022/05/10 08:03:52;;;;;;;1.70;1.10;;;;;;;17.13;25.45;99696.44;104731;1271;61112;-25
2022/05/10 08:06:21;;;;;;;3.10;0.90;;;;;;;17.91;25.28;99693.66;104972;1271;75892;-25
2022/05/10 08:08:50;;;;;;;8.30;3.10;;;;;;;18.45;24.32;99686.76;104865;1271;74999;-25
2022/05/10 08:11:19;;;;;;;2.50;1.60;;;;;;;18.53;23.41;99682.39;105051;1271;72900;-25
2022/05/10 08:13:49;;;;;;;2.60;1.40;;;;;;;18.32;23.31;99682.28;105138;1271;61134;-25
2022/05/10 08:16:17;;;;;;;1.80;0.90;;;;;;;18.39;24.31;99679.16;104792;1274;61836;-25
2022/05/10 08:18:49;;;;;;;3.40;1.10;;;;;;;18.34;24.18;99686.36;104911;1270;75531;-25
2022/05/10 08:21:18;;;;;;;1.70;0.90;;;;;;;18.12;24.63;99683.64;104926;1271;75097;-25
2022/05/10 08:23:49;;;;;;;2.40;1.00;;;;;;;17.20;23.28;99679.05;104956;1271;74460;-26
2022/05/10 08:26:17;;;;;;;3.80;1.30;;;;;;;17.05;24.36;99676.05;104885;1271;61140;-25
2022/05/10 08:28:46;;;;;;;4.40;1.10;;;;;;;16.51;25.07;99677.52;104915;1271;61051;-25
2022/05/10 08:31:15;;;;;;;3.20;1.20;;;;;;;17.18;25.59;99675.65;104932;1271;75540;-25
2022/05/10 08:33:44;;;;;;;1.80;0.90;;;;;;;17.32;25.03;99677.23;104905;1271;76004;-25
2022/05/10 08:36:13;;;;;;;1.80;0.90;;;;;;;18.03;23.81;99675.02;104915;1271;74462;-25
2022/05/10 08:38:41;;;;;;;4.40;1.00;;;;;;;18.43;23.09;99665.67;104641;1271;62586;-25
2022/05/10 08:41:15;;;;;;;1.80;1.10;;;;;;;18.11;23.43;99671.31;104782;1272;61039;-25
2022/05/10 08:43:57;;;;;;;1.20;0.80;;;;;;;18.16;22.62;99670.39;104703;1272;74608;-25
2022/05/10 08:46:49;;;;;;;6.10;1.30;;;;;;;18.18;21.32;99673.73;104785;1271;74620;-25
2022/05/10 08:49:39;;;;;;;4.20;1.40;;;;;;;18.49;22.12;99664.42;104816;1271;74564;-26
2022/05/10 08:52:11;;;;;;;2.40;1.50;;;;;;;18.65;21.07;99666.40;104705;1271;61105;-25
2022/05/10 08:54:40;;;;;;;3.20;1.10;;;;;;;19.23;22.44;99663.94;104672;1271;61095;-25
2022/05/10 08:57:08;;;;;;;6.10;1.40;;;;;;;19.46;21.47;99662.04;104829;1271;74757;-26
2022/05/10 08:59:52;;;;;;;3.50;1.30;;;;;;;19.25;21.99;99659.70;104896;1271;75781;-25
2022/05/10 09:02:29;;;;;;;2.40;1.50;;;;;;;19.16;22.03;99658.42;105111;1271;74214;-26
2022/05/10 09:05:22;;;;;;;3.20;1.30;;;;;;;18.71;21.98;99654.54;104896;1271;61435;-25
2022/05/10 09:08:16;;;;;;;2.70;1.30;;;;;;;18.91;21.97;99660.56;105016;1271;61128;-26
2022/05/10 09:10:59;;;;;;;1.60;1.10;;;;;;;19.56;22.29;99654.30;105121;1271;75487;-27
2022/05/10 09:13:28;;;;;;;8.10;1.00;;;;;;;20.10;21.54;99648.03;105131;1271;76133;-26
2022/05/10 09:15:59;;;;;;;2.40;1.30;;;;;;;20.38;21.44;99642.36;104973;1271;74206;-25
2022/05/10 09:18:32;;;;;;;1.50;1.00;;;;;;;20.20;20.46;99640.60;104795;1271;61948;-27
2022/05/10 09:21:32;;;;;;;3.40;1.40;;;;;;;19.81;21.90;99633.43;104761;1271;61065;-27
2022/05/10 09:24:21;;;;;;;2.70;1.40;;;;;;;19.44;22.16;99634.02;105066;1271;74327;-27
2022/05/10 09:26:57;;;;;;;2.80;1.70;;;;;;;19.93;22.76;99626.99;104988;1271;76418;-27
2022/05/10 09:29:44;;;;;;;2.80;1.10;;;;;;;19.93;22.47;99624.28;104827;1271;74199;-27
2022/05/10 09:35:12;;;;;;;2.10;1.20;;;;;;;19.82;22.88;99613.05;104804;1271;62007;-27
2022/05/10 09:37:48;;;;;;;2.00;1.20;;;;;;;19.31;23.15;99605.00;104922;1274;74592;-27
2022/05/10 09:40:17;;;;;;;1.50;0.70;;;;;;;18.54;23.51;99600.75;104831;1271;74799;-27
2022/05/10 09:42:50;;;;;;;0.90;0.80;;;;;;;18.70;23.10;99604.65;105059;1271;74211;-27
2022/05/10 09:45:26;;;;;;;2.30;0.90;;;;;;;18.73;22.66;99604.39;105138;1271;62125;-27
2022/05/10 09:47:59;;;;;;;1.30;0.80;;;;;;;18.89;23.15;99603.60;105007;1271;62630;-27
2022/05/10 09:50:34;;;;;;;2.10;0.80;;;;;;;18.62;23.25;99599.04;104789;1271;74326;-28
2022/05/10 09:53:12;;;;;;;6.80;1.10;;;;;;;18.48;22.82;99600.30;104854;1271;76122;-25
2022/05/10 09:55:58;;;;;;;1.50;0.90;;;;;;;18.67;22.42;99597.77;104603;1274;74256;-25
2022/05/10 09:58:32;;;;;;;1.60;1.00;;;;;;;18.63;22.13;99594.48;104768;1271;61120;-25
2022/05/10 10:01:01;;;;;;;;;;;;;;;19.50;21.65;99596.27;104759;1271;61049;-25
2022/05/10 10:03:37;;;;;;;2.50;1.20;;;;;;;19.65;22.16;99596.70;104824;1271;75557;-25
2022/05/10 10:06:25;;;;;;;2.00;1.00;;;;;;;19.50;22.80;99585.92;104779;1271;75157;-26
2022/05/10 10:08:57;;;;;;;2.00;0.90;;;;;;;19.46;23.09;99582.98;104799;1271;73464;-27
2022/05/10 10:11:28;;;;;;;1.50;0.70;;;;;;;19.22;22.47;99569.47;104728;1271;61672;-27
2022/05/10 10:14:06;;;;;;;2.40;1.10;;;;;;;19.35;23.48;99573.75;104747;1271;61062;-25
2022/05/10 10:16:45;;;;;;;19.70;1.60;;;;;;;19.26;22.49;99567.05;104972;1271;75601;-25
2022/05/10 10:19:25;;;;;;;1.30;0.80;;;;;;;19.22;22.27;99563.92;105127;1271;76002;-25
2022/05/10 10:22:14;;;;;;;2.50;1.00;;;;;;;19.58;22.46;99571.64;105124;1272;73404;-25
2022/05/10 10:25:13;;;;;;;1.90;0.80;;;;;;;19.77;22.05;99561.40;105071;1271;61042;-25
2022/05/10 10:27:50;;;;;;;1.50;0.90;;;;;;;19.81;21.12;99568.37;105160;1271;61032;-25
2022/05/10 10:30:23;;;;;;;2.20;1.10;;;;;;;19.76;22.27;99563.14;104807;1271;75611;-25
2022/05/10 10:33:14;;;;;;;1.70;1.10;;;;;;;19.60;22.61;99558.70;104808;1271;74764;-26
2022/05/10 10:35:49;;;;;;;6.50;0.90;;;;;;;19.55;23.00;99553.65;104707;1271;74207;-28
2022/05/10 10:38:24;;;;;;;18.40;1.60;;;;;;;19.09;23.12;99557.20;104674;1271;61203;-27
2022/05/10 10:41:04;;;;;;;1.80;0.90;;;;;;;19.04;23.02;99554.84;104707;1271;61592;-27
2022/05/10 10:43:43;;;;;;;2.80;1.00;;;;;;;18.84;21.50;99546.74;104692;1271;75507;-26
2022/05/10 10:46:38;;;;;;;1.60;0.90;;;;;;;19.37;21.95;99543.00;105143;1271;76070;-25
2022/05/10 10:49:11;;;;;;;3.80;1.20;;;;;;;20.09;21.62;99543.71;105119;1271;74739;-26
2022/05/10 10:51:40;;;;;;;;;;;;;;;20.00;22.22;99533.85;104690;1271;61995;-26
2022/05/10 10:54:19;;;;;;;2.20;1.00;;;;;;;19.73;24.73;99540.16;105003;1271;61108;-25
2022/05/10 10:57:24;;;;;;;2.70;1.30;;;;;;;19.73;24.35;99532.44;105176;1271;75336;-26
2022/05/10 11:00:06;;;;;;;3.50;1.10;;;;;;;20.04;22.90;99531.14;104984;1271;76221;-25
2022/05/10 11:02:58;;;;;;;2.60;1.10;;;;;;;20.23;22.79;99524.05;104760;1271;74403;-25
2022/05/10 11:05:59;;;;;;;3.80;1.30;;;;;;;20.00;22.83;99514.16;104836;1271;61125;-26
2022/05/10 11:08:51;;;;;;;2.30;1.10;;;;;;;19.15;22.81;99503.09;105104;1271;61020;-26
2022/05/10 11:11:41;;;;;;;1.60;1.00;;;;;;;18.18;23.43;99497.54;104783;1271;75734;-26
2022/05/10 11:14:52;;;;;;;1.90;1.10;;;;;;;18.46;25.00;99503.29;104883;1271;74783;-26
2022/05/10 11:17:39;;;;;;;2.00;0.90;;;;;;;18.59;23.66;99498.20;104680;1271;74594;-26
2022/05/10 11:20:14;;;;;;;3.80;0.90;;;;;;;18.42;24.01;99491.78;104814;1271;61068;-26
2022/05/10 11:22:42;;;;;;;6.80;0.90;;;;;;;18.35;24.02;99493.10;104843;1271;61082;-26
2022/05/10 11:25:26;;;;;;;2.70;0.80;;;;;;;18.35;23.28;99489.91;104964;1271;75411;-26
2022/05/10 11:28:02;;;;;;;1.20;0.90;;;;;;;18.59;23.75;99486.08;104880;1271;75998;-26
2022/05/10 11:30:50;;;;;;;2.00;0.70;;;;;;;18.85;22.40;99480.13;104793;1271;73153;-26
2022/05/10 11:33:33;;;;;;;3.10;0.90;;;;;;;19.41;22.71;99478.27;104824;1271;61770;-25
2022/05/10 11:36:18;;;;;;;1.60;1.00;;;;;;;19.66;23.35;99480.17;104847;1271;61543;-25
2022/05/10 11:39:13;;;;;;;1.70;0.90;;;;;;;19.08;23.83;99475.86;104754;1271;75636;-26
2022/05/10 11:41:52;;;;;;;4.70;1.00;;;;;;;18.24;24.20;99465.10;104737;1271;76142;-26
2022/05/10 11:44:40;;;;;;;3.70;1.00;;;;;;;18.10;24.26;99466.26;104742;1271;74258;-26
2022/05/10 11:47:26;;;;;;;7.30;1.20;;;;;;;18.40;25.68;99473.20;104835;1271;61115;-26
2022/05/10 11:50:22;;;;;;;12.80;1.20;;;;;;;18.73;24.05;99469.27;104644;1274;61151;-26
2022/05/10 11:53:16;;;;;;;2.30;0.90;;;;;;;18.94;23.44;99462.67;105002;1271;75575;-26
2022/05/10 11:55:54;;;;;;;1.40;1.00;;;;;;;18.66;23.98;99450.33;105141;1271;75804;-26
2022/05/10 11:58:24;;;;;;;2.50;1.10;;;;;;;18.07;23.47;99446.32;105023;1271;72630;-26
2022/05/10 12:01:00;;;;;;;2.50;1.30;;;;;;;18.34;23.12;99442.88;104803;1271;62073;-26
2022/05/10 12:03:36;;;;;;;2.40;1.10;;;;;;;18.36;23.76;99438.31;104782;1271;61004;-26
2022/05/10 12:06:35;;;;;;;2.60;1.10;;;;;;;18.40;23.49;99440.11;104809;1271;74538;-26
2022/05/10 12:09:04;;;;;;;2.10;1.10;;;;;;;18.35;23.75;99435.81;104915;1271;76315;-26
2022/05/10 12:11:37;;;;;;;1.50;0.80;;;;;;;18.61;25.79;99433.39;104801;1271;73413;-27
2022/05/10 12:22:58;;;;;;;2.30;0.80;;;;;;;17.74;24.09;99419.69;105154;1271;75975;-26